sensor_id;sensor_type;location;lat;lon;timestamp;temperature;humidity
9881;DHT22;4979;51.014;6.678;2023-08-24T00:00:31;20.50;99.90
9881;DHT22;4979;51.014;6.678;2023-08-24T00:02:58;20.50;99.90
9881;DHT22;4979;51.014;6.678;2023-08-24T00:05:23;20.50;99.90
9881;DHT22;4979;51.014;6.678;2023-08-24T00:07:49;20.50;99.90
9881;DHT22;4979;51.014;6.678;2023-08-24T00:10:15;20.60;99.90
9881;DHT22;4979;51.014;6.678;2023-08-24T00:12:41;20.60;99.90
9881;DHT22;4979;51.014;6.678;2023-08-24T00:15:08;20.50;99.90
9881;DHT22;4979;51.014;6.678;2023-08-24T00:17:34;20.40;99.90
9881;DHT22;4979;51.014;6.678;2023-08-24T00:20:00;20.30;99.90
9881;DHT22;4979;51.014;6.678;2023-08-24T00:22:29;20.20;99.90
9881;DHT22;4979;51.014;6.678;2023-08-24T00:24:55;20.20;99.90
9881;DHT22;4979;51.014;6.678;2023-08-24T00:27:20;20.20;99.90
9881;DHT22;4979;51.014;6.678;2023-08-24T00:29:46;20.20;99.90
9881;DHT22;4979;51.014;6.678;2023-08-24T00:32:12;20.20;99.90
9881;DHT22;4979;51.014;6.678;2023-08-24T00:34:37;20.20;99.90
9881;DHT22;4979;51.014;6.678;2023-08-24T00:37:03;20.30;99.90
9881;DHT22;4979;51.014;6.678;2023-08-24T00:39:28;20.20;99.90
9881;DHT22;4979;51.014;6.678;2023-08-24T00:41:54;20.30;99.90
9881;DHT22;4979;51.014;6.678;2023-08-24T00:44:20;20.30;99.90
9881;DHT22;4979;51.014;6.678;2023-08-24T00:46:46;20.30;99.90
9881;DHT22;4979;51.014;6.678;2023-08-24T00:49:11;20.30;99.90
9881;DHT22;4979;51.014;6.678;2023-08-24T00:51:38;20.30;99.90
9881;DHT22;4979;51.014;6.678;2023-08-24T00:54:04;20.20;99.90
9881;DHT22;4979;51.014;6.678;2023-08-24T00:56:30;20.20;99.90
9881;DHT22;4979;51.014;6.678;2023-08-24T00:58:56;20.30;99.90
9881;DHT22;4979;51.014;6.678;2023-08-24T01:01:22;20.30;99.90
9881;DHT22;4979;51.014;6.678;2023-08-24T01:03:49;20.20;99.90
9881;DHT22;4979;51.014;6.678;2023-08-24T01:06:15;20.30;99.90
9881;DHT22;4979;51.014;6.678;2023-08-24T01:08:41;20.20;99.90
9881;DHT22;4979;51.014;6.678;2023-08-24T01:11:31;20.30;99.90
9881;DHT22;4979;51.014;6.678;2023-08-24T01:16:31;20.20;99.90
9881;DHT22;4979;51.014;6.678;2023-08-24T01:18:59;20.20;99.90
9881;DHT22;4979;51.014;6.678;2023-08-24T01:21:28;20.30;99.90
9881;DHT22;4979;51.014;6.678;2023-08-24T01:24:10;20.50;99.90
9881;DHT22;4979;51.014;6.678;2023-08-24T01:26:37;20.20;99.90
9881;DHT22;4979;51.014;6.678;2023-08-24T01:29:05;20.20;99.90
9881;DHT22;4979;51.014;6.678;2023-08-24T01:31:32;20.20;99.90
9881;DHT22;4979;51.014;6.678;2023-08-24T01:33:58;20.20;99.90
9881;DHT22;4979;51.014;6.678;2023-08-24T01:36:23;20.00;99.90
9881;DHT22;4979;51.014;6.678;2023-08-24T01:39:06;20.00;99.90
9881;DHT22;4979;51.014;6.678;2023-08-24T01:41:35;19.90;99.90
9881;DHT22;4979;51.014;6.678;2023-08-24T01:44:04;19.80;99.90
9881;DHT22;4979;51.014;6.678;2023-08-24T01:46:33;19.90;99.90
9881;DHT22;4979;51.014;6.678;2023-08-24T01:49:00;19.90;99.90
9881;DHT22;4979;51.014;6.678;2023-08-24T01:51:26;19.80;99.90
9881;DHT22;4979;51.014;6.678;2023-08-24T01:53:52;19.80;99.90
9881;DHT22;4979;51.014;6.678;2023-08-24T01:56:18;19.80;99.90
9881;DHT22;4979;51.014;6.678;2023-08-24T01:58:43;19.80;99.90
9881;DHT22;4979;51.014;6.678;2023-08-24T02:01:09;19.80;99.90
9881;DHT22;4979;51.014;6.678;2023-08-24T02:03:35;19.70;99.90
9881;DHT22;4979;51.014;6.678;2023-08-24T02:06:01;19.80;99.90
9881;DHT22;4979;51.014;6.678;2023-08-24T02:08:27;19.80;99.90
9881;DHT22;4979;51.014;6.678;2023-08-24T02:10:52;19.80;99.90
9881;DHT22;4979;51.014;6.678;2023-08-24T02:13:18;19.70;99.90
9881;DHT22;4979;51.014;6.678;2023-08-24T02:15:44;19.60;99.90
9881;DHT22;4979;51.014;6.678;2023-08-24T02:18:09;19.60;99.90
9881;DHT22;4979;51.014;6.678;2023-08-24T02:20:38;19.60;99.90
9881;DHT22;4979;51.014;6.678;2023-08-24T02:23:04;19.70;99.90
9881;DHT22;4979;51.014;6.678;2023-08-24T02:25:30;19.70;99.90
9881;DHT22;4979;51.014;6.678;2023-08-24T02:27:56;19.60;99.90
9881;DHT22;4979;51.014;6.678;2023-08-24T02:30:21;19.60;99.90
9881;DHT22;4979;51.014;6.678;2023-08-24T02:32:47;19.60;99.90
9881;DHT22;4979;51.014;6.678;2023-08-24T02:35:12;19.50;99.90
9881;DHT22;4979;51.014;6.678;2023-08-24T02:37:38;19.60;99.90
9881;DHT22;4979;51.014;6.678;2023-08-24T02:40:04;19.60;99.90
9881;DHT22;4979;51.014;6.678;2023-08-24T02:42:31;19.50;99.90
9881;DHT22;4979;51.014;6.678;2023-08-24T02:44:58;19.50;99.90
9881;DHT22;4979;51.014;6.678;2023-08-24T02:47:23;19.50;99.90
9881;DHT22;4979;51.014;6.678;2023-08-24T02:49:49;19.60;99.90
9881;DHT22;4979;51.014;6.678;2023-08-24T02:52:14;19.60;99.90
9881;DHT22;4979;51.014;6.678;2023-08-24T02:54:40;19.60;99.90
9881;DHT22;4979;51.014;6.678;2023-08-24T02:57:05;19.60;99.90
9881;DHT22;4979;51.014;6.678;2023-08-24T02:59:31;19.60;99.90
9881;DHT22;4979;51.014;6.678;2023-08-24T03:01:57;19.70;99.90
9881;DHT22;4979;51.014;6.678;2023-08-24T03:04:23;19.60;99.90
9881;DHT22;4979;51.014;6.678;2023-08-24T03:06:49;19.60;99.90
9881;DHT22;4979;51.014;6.678;2023-08-24T03:09:14;19.60;99.90
9881;DHT22;4979;51.014;6.678;2023-08-24T03:11:40;19.60;99.90
9881;DHT22;4979;51.014;6.678;2023-08-24T03:14:06;19.70;99.90
9881;DHT22;4979;51.014;6.678;2023-08-24T03:16:32;19.60;99.90
9881;DHT22;4979;51.014;6.678;2023-08-24T03:18:57;19.50;99.90
9881;DHT22;4979;51.014;6.678;2023-08-24T03:21:23;19.60;99.90
9881;DHT22;4979;51.014;6.678;2023-08-24T03:23:49;19.70;99.90
9881;DHT22;4979;51.014;6.678;2023-08-24T03:26:14;19.70;99.90
9881;DHT22;4979;51.014;6.678;2023-08-24T03:28:42;19.70;99.90
9881;DHT22;4979;51.014;6.678;2023-08-24T03:31:07;19.70;99.90
9881;DHT22;4979;51.014;6.678;2023-08-24T03:33:33;19.80;99.90
9881;DHT22;4979;51.014;6.678;2023-08-24T03:36:00;19.70;99.90
9881;DHT22;4979;51.014;6.678;2023-08-24T03:38:25;19.60;99.90
9881;DHT22;4979;51.014;6.678;2023-08-24T03:40:52;19.50;99.90
9881;DHT22;4979;51.014;6.678;2023-08-24T03:43:24;19.40;99.90
9881;DHT22;4979;51.014;6.678;2023-08-24T03:45:50;19.30;99.90
9881;DHT22;4979;51.014;6.678;2023-08-24T03:48:15;19.40;99.90
9881;DHT22;4979;51.014;6.678;2023-08-24T03:50:41;19.30;99.90
9881;DHT22;4979;51.014;6.678;2023-08-24T03:53:07;19.30;99.90
9881;DHT22;4979;51.014;6.678;2023-08-24T03:55:32;19.20;99.90
9881;DHT22;4979;51.014;6.678;2023-08-24T03:57:58;19.20;99.90
9881;DHT22;4979;51.014;6.678;2023-08-24T04:00:24;19.40;99.90
9881;DHT22;4979;51.014;6.678;2023-08-24T04:02:49;19.50;99.90
9881;DHT22;4979;51.014;6.678;2023-08-24T04:05:15;19.50;99.90
9881;DHT22;4979;51.014;6.678;2023-08-24T04:07:41;19.40;99.90
9881;DHT22;4979;51.014;6.678;2023-08-24T04:10:08;19.60;99.90
9881;DHT22;4979;51.014;6.678;2023-08-24T04:12:33;19.50;99.90
9881;DHT22;4979;51.014;6.678;2023-08-24T04:14:59;19.60;99.90
9881;DHT22;4979;51.014;6.678;2023-08-24T04:17:25;19.60;99.90
9881;DHT22;4979;51.014;6.678;2023-08-24T04:19:51;19.70;99.90
9881;DHT22;4979;51.014;6.678;2023-08-24T04:22:16;19.70;99.90
9881;DHT22;4979;51.014;6.678;2023-08-24T04:24:42;19.70;99.90
9881;DHT22;4979;51.014;6.678;2023-08-24T04:27:07;19.60;99.90
9881;DHT22;4979;51.014;6.678;2023-08-24T04:29:33;19.70;99.90
9881;DHT22;4979;51.014;6.678;2023-08-24T04:31:59;19.70;99.90
9881;DHT22;4979;51.014;6.678;2023-08-24T04:34:24;19.60;99.90
9881;DHT22;4979;51.014;6.678;2023-08-24T04:36:50;19.50;99.90
9881;DHT22;4979;51.014;6.678;2023-08-24T04:39:15;19.40;99.90
9881;DHT22;4979;51.014;6.678;2023-08-24T04:41:42;19.40;99.90
9881;DHT22;4979;51.014;6.678;2023-08-24T04:44:07;19.40;99.90
9881;DHT22;4979;51.014;6.678;2023-08-24T04:46:33;19.60;99.90
9881;DHT22;4979;51.014;6.678;2023-08-24T04:48:59;19.60;99.90
9881;DHT22;4979;51.014;6.678;2023-08-24T04:51:25;19.60;99.90
9881;DHT22;4979;51.014;6.678;2023-08-24T04:53:53;19.60;99.90
9881;DHT22;4979;51.014;6.678;2023-08-24T04:56:19;19.60;99.90
9881;DHT22;4979;51.014;6.678;2023-08-24T04:58:54;19.70;99.90
9881;DHT22;4979;51.014;6.678;2023-08-24T05:01:25;19.70;99.90
9881;DHT22;4979;51.014;6.678;2023-08-24T05:03:51;19.70;99.90
9881;DHT22;4979;51.014;6.678;2023-08-24T05:06:17;19.70;99.90
9881;DHT22;4979;51.014;6.678;2023-08-24T05:08:43;19.60;99.90
9881;DHT22;4979;51.014;6.678;2023-08-24T05:11:24;19.70;99.90
9881;DHT22;4979;51.014;6.678;2023-08-24T05:13:50;19.70;99.90
9881;DHT22;4979;51.014;6.678;2023-08-24T05:16:15;19.70;99.90
9881;DHT22;4979;51.014;6.678;2023-08-24T05:18:41;19.60;99.90
9881;DHT22;4979;51.014;6.678;2023-08-24T05:21:07;19.70;99.90
9881;DHT22;4979;51.014;6.678;2023-08-24T05:23:33;19.60;99.90
9881;DHT22;4979;51.014;6.678;2023-08-24T05:26:00;19.70;99.90
9881;DHT22;4979;51.014;6.678;2023-08-24T05:28:27;19.70;99.90
9881;DHT22;4979;51.014;6.678;2023-08-24T05:30:53;19.80;99.90
9881;DHT22;4979;51.014;6.678;2023-08-24T05:33:20;19.70;99.90
9881;DHT22;4979;51.014;6.678;2023-08-24T05:35:46;19.70;99.90
9881;DHT22;4979;51.014;6.678;2023-08-24T05:38:13;19.80;99.90
9881;DHT22;4979;51.014;6.678;2023-08-24T05:40:38;19.70;99.90
9881;DHT22;4979;51.014;6.678;2023-08-24T05:43:04;19.70;99.90
9881;DHT22;4979;51.014;6.678;2023-08-24T05:45:30;19.70;99.90
9881;DHT22;4979;51.014;6.678;2023-08-24T05:47:55;19.70;99.90
9881;DHT22;4979;51.014;6.678;2023-08-24T05:50:21;19.80;99.90
9881;DHT22;4979;51.014;6.678;2023-08-24T05:52:47;19.80;99.90
9881;DHT22;4979;51.014;6.678;2023-08-24T05:55:12;19.80;99.90
9881;DHT22;4979;51.014;6.678;2023-08-24T05:57:38;19.80;99.90
9881;DHT22;4979;51.014;6.678;2023-08-24T06:00:04;19.90;99.90
9881;DHT22;4979;51.014;6.678;2023-08-24T06:02:35;19.90;99.90
9881;DHT22;4979;51.014;6.678;2023-08-24T06:05:01;19.90;99.90
9881;DHT22;4979;51.014;6.678;2023-08-24T06:07:26;20.00;99.90
9881;DHT22;4979;51.014;6.678;2023-08-24T06:09:52;19.90;99.90
9881;DHT22;4979;51.014;6.678;2023-08-24T06:12:18;20.00;99.90
9881;DHT22;4979;51.014;6.678;2023-08-24T06:14:43;20.00;99.90
9881;DHT22;4979;51.014;6.678;2023-08-24T06:17:09;20.00;99.90
9881;DHT22;4979;51.014;6.678;2023-08-24T06:19:34;19.90;99.90
9881;DHT22;4979;51.014;6.678;2023-08-24T06:22:00;19.90;99.90
9881;DHT22;4979;51.014;6.678;2023-08-24T06:24:25;20.00;99.90
9881;DHT22;4979;51.014;6.678;2023-08-24T06:26:51;20.20;99.90
9881;DHT22;4979;51.014;6.678;2023-08-24T06:29:16;20.30;99.90
9881;DHT22;4979;51.014;6.678;2023-08-24T06:31:42;20.40;99.90
9881;DHT22;4979;51.014;6.678;2023-08-24T06:34:08;20.70;99.90
9881;DHT22;4979;51.014;6.678;2023-08-24T06:36:33;20.50;99.90
9881;DHT22;4979;51.014;6.678;2023-08-24T06:38:59;20.50;99.90
9881;DHT22;4979;51.014;6.678;2023-08-24T06:41:24;20.60;99.90
9881;DHT22;4979;51.014;6.678;2023-08-24T06:43:50;20.70;99.90
9881;DHT22;4979;51.014;6.678;2023-08-24T06:46:15;20.80;99.90
9881;DHT22;4979;51.014;6.678;2023-08-24T06:48:41;20.80;99.90
9881;DHT22;4979;51.014;6.678;2023-08-24T06:51:10;20.90;99.90
9881;DHT22;4979;51.014;6.678;2023-08-24T06:53:35;21.00;99.90
9881;DHT22;4979;51.014;6.678;2023-08-24T06:56:01;23.90;99.90
9881;DHT22;4979;51.014;6.678;2023-08-24T06:58:27;21.10;99.90
9881;DHT22;4979;51.014;6.678;2023-08-24T07:00:52;21.10;99.90
9881;DHT22;4979;51.014;6.678;2023-08-24T07:03:19;21.10;99.90
9881;DHT22;4979;51.014;6.678;2023-08-24T07:05:46;21.30;99.90
9881;DHT22;4979;51.014;6.678;2023-08-24T07:08:12;21.60;99.90
9881;DHT22;4979;51.014;6.678;2023-08-24T07:10:38;21.70;99.90
9881;DHT22;4979;51.014;6.678;2023-08-24T07:13:06;21.80;99.90
9881;DHT22;4979;51.014;6.678;2023-08-24T07:15:32;21.90;99.90
9881;DHT22;4979;51.014;6.678;2023-08-24T07:18:02;21.90;99.90
9881;DHT22;4979;51.014;6.678;2023-08-24T07:20:28;22.10;99.90
9881;DHT22;4979;51.014;6.678;2023-08-24T07:22:53;22.30;99.90
9881;DHT22;4979;51.014;6.678;2023-08-24T07:25:19;22.30;99.90
9881;DHT22;4979;51.014;6.678;2023-08-24T07:27:46;22.60;99.90
9881;DHT22;4979;51.014;6.678;2023-08-24T07:30:12;22.80;99.90
9881;DHT22;4979;51.014;6.678;2023-08-24T07:32:38;22.60;99.90
9881;DHT22;4979;51.014;6.678;2023-08-24T07:35:04;22.80;99.90
9881;DHT22;4979;51.014;6.678;2023-08-24T07:37:31;22.90;99.90
9881;DHT22;4979;51.014;6.678;2023-08-24T07:39:57;23.00;99.90
9881;DHT22;4979;51.014;6.678;2023-08-24T07:42:22;23.10;99.90
9881;DHT22;4979;51.014;6.678;2023-08-24T07:44:48;23.20;99.90
9881;DHT22;4979;51.014;6.678;2023-08-24T07:47:14;23.40;99.90
9881;DHT22;4979;51.014;6.678;2023-08-24T07:49:40;23.60;99.90
9881;DHT22;4979;51.014;6.678;2023-08-24T07:52:10;23.70;99.90
9881;DHT22;4979;51.014;6.678;2023-08-24T07:54:36;23.60;99.90
9881;DHT22;4979;51.014;6.678;2023-08-24T07:57:02;23.70;99.90
9881;DHT22;4979;51.014;6.678;2023-08-24T07:59:27;23.80;99.90
9881;DHT22;4979;51.014;6.678;2023-08-24T08:01:53;23.80;99.90
9881;DHT22;4979;51.014;6.678;2023-08-24T08:04:18;23.90;99.90
9881;DHT22;4979;51.014;6.678;2023-08-24T08:06:44;24.10;99.90
9881;DHT22;4979;51.014;6.678;2023-08-24T08:09:09;24.30;99.90
9881;DHT22;4979;51.014;6.678;2023-08-24T08:11:35;24.30;99.90
9881;DHT22;4979;51.014;6.678;2023-08-24T08:14:01;24.40;99.90
9881;DHT22;4979;51.014;6.678;2023-08-24T08:16:26;24.50;99.90
9881;DHT22;4979;51.014;6.678;2023-08-24T08:18:52;24.60;99.90
9881;DHT22;4979;51.014;6.678;2023-08-24T08:21:18;24.80;99.90
9881;DHT22;4979;51.014;6.678;2023-08-24T08:23:44;24.60;99.90
9881;DHT22;4979;51.014;6.678;2023-08-24T08:26:11;24.80;99.90
9881;DHT22;4979;51.014;6.678;2023-08-24T08:28:36;25.00;99.90
9881;DHT22;4979;51.014;6.678;2023-08-24T08:31:02;25.10;99.90
9881;DHT22;4979;51.014;6.678;2023-08-24T08:33:29;25.20;99.90
9881;DHT22;4979;51.014;6.678;2023-08-24T08:35:55;25.40;99.90
9881;DHT22;4979;51.014;6.678;2023-08-24T08:38:20;25.40;99.90
9881;DHT22;4979;51.014;6.678;2023-08-24T08:40:53;25.20;99.90
9881;DHT22;4979;51.014;6.678;2023-08-24T08:43:21;25.50;99.90
9881;DHT22;4979;51.014;6.678;2023-08-24T08:45:49;25.50;99.90
9881;DHT22;4979;51.014;6.678;2023-08-24T08:48:15;25.70;99.90
9881;DHT22;4979;51.014;6.678;2023-08-24T08:50:40;25.60;99.90
9881;DHT22;4979;51.014;6.678;2023-08-24T08:53:06;25.90;99.90
9881;DHT22;4979;51.014;6.678;2023-08-24T08:55:32;25.90;99.90
9881;DHT22;4979;51.014;6.678;2023-08-24T08:57:58;25.90;99.90
9881;DHT22;4979;51.014;6.678;2023-08-24T09:00:26;26.30;99.90
9881;DHT22;4979;51.014;6.678;2023-08-24T09:02:53;26.30;99.90
9881;DHT22;4979;51.014;6.678;2023-08-24T09:05:20;26.50;99.90
9881;DHT22;4979;51.014;6.678;2023-08-24T09:07:47;26.60;99.90
9881;DHT22;4979;51.014;6.678;2023-08-24T09:10:13;26.50;99.90
9881;DHT22;4979;51.014;6.678;2023-08-24T09:12:39;26.60;99.90
9881;DHT22;4979;51.014;6.678;2023-08-24T09:15:05;26.60;99.90
9881;DHT22;4979;51.014;6.678;2023-08-24T09:17:32;26.60;99.90
9881;DHT22;4979;51.014;6.678;2023-08-24T09:19:59;26.80;99.90
9881;DHT22;4979;51.014;6.678;2023-08-24T09:22:25;26.90;99.90
9881;DHT22;4979;51.014;6.678;2023-08-24T09:24:51;27.00;99.90
9881;DHT22;4979;51.014;6.678;2023-08-24T09:27:18;27.00;99.90
9881;DHT22;4979;51.014;6.678;2023-08-24T09:29:51;27.10;99.90
9881;DHT22;4979;51.014;6.678;2023-08-24T09:32:24;27.10;99.90
9881;DHT22;4979;51.014;6.678;2023-08-24T09:34:52;27.30;99.90
9881;DHT22;4979;51.014;6.678;2023-08-24T09:37:18;27.40;99.90
9881;DHT22;4979;51.014;6.678;2023-08-24T09:39:44;27.40;99.90
9881;DHT22;4979;51.014;6.678;2023-08-24T09:42:10;27.50;99.90
9881;DHT22;4979;51.014;6.678;2023-08-24T09:44:35;27.40;99.90
9881;DHT22;4979;51.014;6.678;2023-08-24T09:47:01;27.50;99.90
9881;DHT22;4979;51.014;6.678;2023-08-24T09:49:28;27.60;99.90
9881;DHT22;4979;51.014;6.678;2023-08-24T09:51:57;27.40;99.90
9881;DHT22;4979;51.014;6.678;2023-08-24T09:54:26;27.40;99.90
9881;DHT22;4979;51.014;6.678;2023-08-24T09:56:54;27.80;99.90
9881;DHT22;4979;51.014;6.678;2023-08-24T09:59:22;27.80;99.90
9881;DHT22;4979;51.014;6.678;2023-08-24T10:01:51;27.90;99.90
9881;DHT22;4979;51.014;6.678;2023-08-24T10:04:29;27.90;99.90
9881;DHT22;4979;51.014;6.678;2023-08-24T10:07:11;27.80;99.90
9881;DHT22;4979;51.014;6.678;2023-08-24T10:09:58;27.50;99.90
9881;DHT22;4979;51.014;6.678;2023-08-24T10:12:27;27.50;99.90
9881;DHT22;4979;51.014;6.678;2023-08-24T10:15:00;27.50;99.90
9881;DHT22;4979;51.014;6.678;2023-08-24T10:17:38;27.60;99.90
9881;DHT22;4979;51.014;6.678;2023-08-24T10:20:05;27.60;99.90
9881;DHT22;4979;51.014;6.678;2023-08-24T10:22:35;27.60;99.90
9881;DHT22;4979;51.014;6.678;2023-08-24T10:25:04;27.60;99.90
9881;DHT22;4979;51.014;6.678;2023-08-24T10:27:30;27.80;99.90
9881;DHT22;4979;51.014;6.678;2023-08-24T10:29:57;27.70;99.90
9881;DHT22;4979;51.014;6.678;2023-08-24T10:32:26;27.60;99.90
9881;DHT22;4979;51.014;6.678;2023-08-24T10:34:52;27.70;99.90
9881;DHT22;4979;51.014;6.678;2023-08-24T10:37:25;27.90;99.90
9881;DHT22;4979;51.014;6.678;2023-08-24T10:39:51;27.80;99.90
9881;DHT22;4979;51.014;6.678;2023-08-24T10:42:16;27.80;99.90
9881;DHT22;4979;51.014;6.678;2023-08-24T10:44:46;28.00;99.90
9881;DHT22;4979;51.014;6.678;2023-08-24T10:47:21;28.20;99.90
9881;DHT22;4979;51.014;6.678;2023-08-24T10:52:32;28.50;99.90
9881;DHT22;4979;51.014;6.678;2023-08-24T10:55:01;28.70;99.90
9881;DHT22;4979;51.014;6.678;2023-08-24T10:57:35;28.80;99.90
9881;DHT22;4979;51.014;6.678;2023-08-24T11:00:03;28.70;99.90
9881;DHT22;4979;51.014;6.678;2023-08-24T11:02:40;28.60;99.90
9881;DHT22;4979;51.014;6.678;2023-08-24T11:05:21;28.60;99.90
9881;DHT22;4979;51.014;6.678;2023-08-24T11:08:00;28.50;99.90
9881;DHT22;4979;51.014;6.678;2023-08-24T11:13:08;28.40;99.90
9881;DHT22;4979;51.014;6.678;2023-08-24T11:15:43;28.30;99.90
9881;DHT22;4979;51.014;6.678;2023-08-24T11:18:27;28.00;99.90
9881;DHT22;4979;51.014;6.678;2023-08-24T11:20:55;28.00;99.90
9881;DHT22;4979;51.014;6.678;2023-08-24T11:23:23;28.00;99.90
9881;DHT22;4979;51.014;6.678;2023-08-24T11:25:50;27.90;99.90
9881;DHT22;4979;51.014;6.678;2023-08-24T11:28:20;27.80;99.90
9881;DHT22;4979;51.014;6.678;2023-08-24T11:30:47;27.80;99.90
9881;DHT22;4979;51.014;6.678;2023-08-24T11:33:13;27.80;99.90
9881;DHT22;4979;51.014;6.678;2023-08-24T11:35:42;27.90;99.90
9881;DHT22;4979;51.014;6.678;2023-08-24T11:38:08;27.80;99.90
9881;DHT22;4979;51.014;6.678;2023-08-24T11:40:34;27.80;99.90
9881;DHT22;4979;51.014;6.678;2023-08-24T11:42:59;27.90;99.90
9881;DHT22;4979;51.014;6.678;2023-08-24T11:45:30;28.00;99.90
9881;DHT22;4979;51.014;6.678;2023-08-24T11:47:58;27.80;99.90
9881;DHT22;4979;51.014;6.678;2023-08-24T11:50:25;27.90;99.90
9881;DHT22;4979;51.014;6.678;2023-08-24T11:52:52;27.90;99.90
9881;DHT22;4979;51.014;6.678;2023-08-24T11:55:18;27.80;99.90
9881;DHT22;4979;51.014;6.678;2023-08-24T11:57:45;27.80;99.90
9881;DHT22;4979;51.014;6.678;2023-08-24T12:00:12;27.70;99.90
9881;DHT22;4979;51.014;6.678;2023-08-24T12:02:40;27.70;99.90
9881;DHT22;4979;51.014;6.678;2023-08-24T12:05:06;27.50;99.90
9881;DHT22;4979;51.014;6.678;2023-08-24T12:07:32;27.40;99.90
9881;DHT22;4979;51.014;6.678;2023-08-24T12:10:01;27.20;99.90
9881;DHT22;4979;51.014;6.678;2023-08-24T12:12:27;26.90;99.90
9881;DHT22;4979;51.014;6.678;2023-08-24T12:14:55;26.60;99.90
9881;DHT22;4979;51.014;6.678;2023-08-24T12:17:20;26.40;99.90
9881;DHT22;4979;51.014;6.678;2023-08-24T12:19:57;26.20;99.90
9881;DHT22;4979;51.014;6.678;2023-08-24T12:22:23;25.90;99.90
9881;DHT22;4979;51.014;6.678;2023-08-24T12:24:49;25.60;99.90
9881;DHT22;4979;51.014;6.678;2023-08-24T12:27:25;25.40;99.90
9881;DHT22;4979;51.014;6.678;2023-08-24T12:29:52;25.30;99.90
9881;DHT22;4979;51.014;6.678;2023-08-24T12:32:18;25.20;99.90
9881;DHT22;4979;51.014;6.678;2023-08-24T12:34:52;25.10;99.90
9881;DHT22;4979;51.014;6.678;2023-08-24T12:37:17;25.20;99.90
9881;DHT22;4979;51.014;6.678;2023-08-24T12:39:43;25.20;99.90
9881;DHT22;4979;51.014;6.678;2023-08-24T12:42:09;25.20;99.90
9881;DHT22;4979;51.014;6.678;2023-08-24T12:44:34;25.30;99.90
9881;DHT22;4979;51.014;6.678;2023-08-24T12:47:02;25.20;99.90
9881;DHT22;4979;51.014;6.678;2023-08-24T12:49:28;25.30;99.90
9881;DHT22;4979;51.014;6.678;2023-08-24T12:51:54;28.60;99.90
9881;DHT22;4979;51.014;6.678;2023-08-24T12:54:19;25.40;99.90
9881;DHT22;4979;51.014;6.678;2023-08-24T12:56:45;25.40;99.90
9881;DHT22;4979;51.014;6.678;2023-08-24T12:59:10;25.50;99.90
9881;DHT22;4979;51.014;6.678;2023-08-24T13:01:37;25.70;99.90
9881;DHT22;4979;51.014;6.678;2023-08-24T13:04:04;25.60;99.90
9881;DHT22;4979;51.014;6.678;2023-08-24T13:06:29;25.50;99.90
9881;DHT22;4979;51.014;6.678;2023-08-24T13:08:55;25.20;99.90
9881;DHT22;4979;51.014;6.678;2023-08-24T13:11:21;25.30;99.90
9881;DHT22;4979;51.014;6.678;2023-08-24T13:13:48;25.20;99.90
9881;DHT22;4979;51.014;6.678;2023-08-24T13:16:14;25.10;99.90
9881;DHT22;4979;51.014;6.678;2023-08-24T13:18:40;25.10;99.90
9881;DHT22;4979;51.014;6.678;2023-08-24T13:21:06;25.00;99.90
9881;DHT22;4979;51.014;6.678;2023-08-24T13:23:31;24.70;99.90
9881;DHT22;4979;51.014;6.678;2023-08-24T13:25:58;24.50;99.90
9881;DHT22;4979;51.014;6.678;2023-08-24T13:28:23;24.40;99.90
9881;DHT22;4979;51.014;6.678;2023-08-24T13:30:49;24.40;99.90
9881;DHT22;4979;51.014;6.678;2023-08-24T13:33:14;24.50;99.90
9881;DHT22;4979;51.014;6.678;2023-08-24T13:35:40;24.50;99.90
9881;DHT22;4979;51.014;6.678;2023-08-24T13:38:06;24.50;99.90
9881;DHT22;4979;51.014;6.678;2023-08-24T13:40:32;24.60;99.90
9881;DHT22;4979;51.014;6.678;2023-08-24T13:42:57;24.60;99.90
9881;DHT22;4979;51.014;6.678;2023-08-24T13:45:23;24.60;99.90
9881;DHT22;4979;51.014;6.678;2023-08-24T13:47:48;24.60;99.90
9881;DHT22;4979;51.014;6.678;2023-08-24T13:50:14;24.60;99.90
9881;DHT22;4979;51.014;6.678;2023-08-24T13:52:40;24.70;99.90
9881;DHT22;4979;51.014;6.678;2023-08-24T13:55:05;24.70;99.90
9881;DHT22;4979;51.014;6.678;2023-08-24T13:57:31;24.70;99.90
9881;DHT22;4979;51.014;6.678;2023-08-24T13:59:57;24.80;99.90
9881;DHT22;4979;51.014;6.678;2023-08-24T14:02:23;24.70;99.90
9881;DHT22;4979;51.014;6.678;2023-08-24T14:04:48;24.50;99.90
9881;DHT22;4979;51.014;6.678;2023-08-24T14:07:14;24.40;99.90
9881;DHT22;4979;51.014;6.678;2023-08-24T14:09:39;24.30;99.90
9881;DHT22;4979;51.014;6.678;2023-08-24T14:12:05;24.50;99.90
9881;DHT22;4979;51.014;6.678;2023-08-24T14:14:31;24.40;99.90
9881;DHT22;4979;51.014;6.678;2023-08-24T14:16:56;24.30;99.90
9881;DHT22;4979;51.014;6.678;2023-08-24T14:19:23;24.20;99.90
9881;DHT22;4979;51.014;6.678;2023-08-24T14:21:48;24.20;99.90
9881;DHT22;4979;51.014;6.678;2023-08-24T14:24:14;24.10;99.90
9881;DHT22;4979;51.014;6.678;2023-08-24T14:26:40;24.00;99.90
9881;DHT22;4979;51.014;6.678;2023-08-24T14:29:11;23.90;99.90
9881;DHT22;4979;51.014;6.678;2023-08-24T14:31:37;23.70;99.90
9881;DHT22;4979;51.014;6.678;2023-08-24T14:34:03;23.70;99.90
9881;DHT22;4979;51.014;6.678;2023-08-24T14:36:29;23.50;99.90
9881;DHT22;4979;51.014;6.678;2023-08-24T14:38:55;23.40;99.90
9881;DHT22;4979;51.014;6.678;2023-08-24T14:41:20;23.30;99.90
9881;DHT22;4979;51.014;6.678;2023-08-24T14:43:46;23.10;99.90
9881;DHT22;4979;51.014;6.678;2023-08-24T14:46:12;23.20;99.90
9881;DHT22;4979;51.014;6.678;2023-08-24T14:48:38;23.20;99.90
9881;DHT22;4979;51.014;6.678;2023-08-24T14:51:04;23.10;99.90
9881;DHT22;4979;51.014;6.678;2023-08-24T14:53:30;23.00;99.90
9881;DHT22;4979;51.014;6.678;2023-08-24T14:55:56;23.00;99.90
9881;DHT22;4979;51.014;6.678;2023-08-24T14:58:26;23.00;99.90
9881;DHT22;4979;51.014;6.678;2023-08-24T15:00:53;22.90;99.90
9881;DHT22;4979;51.014;6.678;2023-08-24T15:03:21;22.90;99.90
9881;DHT22;4979;51.014;6.678;2023-08-24T15:05:59;22.80;99.90
9881;DHT22;4979;51.014;6.678;2023-08-24T15:08:25;22.70;99.90
9881;DHT22;4979;51.014;6.678;2023-08-24T15:10:53;22.60;99.90
9881;DHT22;4979;51.014;6.678;2023-08-24T15:13:19;22.60;99.90
9881;DHT22;4979;51.014;6.678;2023-08-24T15:15:44;22.40;99.90
9881;DHT22;4979;51.014;6.678;2023-08-24T15:18:10;22.40;99.90
9881;DHT22;4979;51.014;6.678;2023-08-24T15:20:37;22.30;99.90
9881;DHT22;4979;51.014;6.678;2023-08-24T15:23:02;22.40;99.90
9881;DHT22;4979;51.014;6.678;2023-08-24T15:25:28;22.30;99.90
9881;DHT22;4979;51.014;6.678;2023-08-24T15:27:54;22.30;99.90
9881;DHT22;4979;51.014;6.678;2023-08-24T15:30:20;22.20;99.90
9881;DHT22;4979;51.014;6.678;2023-08-24T15:32:45;22.10;99.90
9881;DHT22;4979;51.014;6.678;2023-08-24T15:35:11;22.20;99.90
9881;DHT22;4979;51.014;6.678;2023-08-24T15:37:36;22.10;99.90
9881;DHT22;4979;51.014;6.678;2023-08-24T15:40:03;22.20;99.90
9881;DHT22;4979;51.014;6.678;2023-08-24T15:42:29;22.30;99.90
9881;DHT22;4979;51.014;6.678;2023-08-24T15:44:55;22.20;99.90
9881;DHT22;4979;51.014;6.678;2023-08-24T15:47:21;22.10;99.90
9881;DHT22;4979;51.014;6.678;2023-08-24T15:49:46;22.00;99.90
9881;DHT22;4979;51.014;6.678;2023-08-24T15:52:12;22.00;99.90
9881;DHT22;4979;51.014;6.678;2023-08-24T15:54:38;21.90;99.90
9881;DHT22;4979;51.014;6.678;2023-08-24T15:57:04;22.10;99.90
9881;DHT22;4979;51.014;6.678;2023-08-24T15:59:30;21.90;99.90
9881;DHT22;4979;51.014;6.678;2023-08-24T16:01:55;22.00;99.90
9881;DHT22;4979;51.014;6.678;2023-08-24T16:04:21;22.10;99.90
9881;DHT22;4979;51.014;6.678;2023-08-24T16:06:46;22.00;99.90